sensor_id;sensor_type;location;lat;lon;timestamp;P1;durP1;ratioP1;P2;durP2;ratioP2
71965;SDS011;59836;52.132;5.442;2022-07-29T00:02:23;1.90;;;1.00;;
71965;SDS011;59836;52.132;5.442;2022-07-29T00:04:50;3.22;;;1.27;;
71965;SDS011;59836;52.132;5.442;2022-07-29T00:07:16;2.10;;;0.90;;
71965;SDS011;59836;52.132;5.442;2022-07-29T00:09:43;2.72;;;0.95;;
71965;SDS011;59836;52.132;5.442;2022-07-29T00:12:18;2.20;;;0.80;;
71965;SDS011;59836;52.132;5.442;2022-07-29T00:14:52;2.33;;;0.93;;
71965;SDS011;59836;52.132;5.442;2022-07-29T00:17:20;2.38;;;0.65;;
71965;SDS011;59836;52.132;5.442;2022-07-29T00:19:46;1.92;;;0.80;;
71965;SDS011;59836;52.132;5.442;2022-07-29T00:22:12;3.03;;;1.25;;
71965;SDS011;59836;52.132;5.442;2022-07-29T00:24:39;1.83;;;0.87;;
71965;SDS011;59836;52.132;5.442;2022-07-29T00:27:05;2.47;;;0.70;;
71965;SDS011;59836;52.132;5.442;2022-07-29T00:29:32;1.77;;;1.17;;
71965;SDS011;59836;52.132;5.442;2022-07-29T00:32:00;2.95;;;1.02;;
71965;SDS011;59836;52.132;5.442;2022-07-29T00:34:27;2.13;;;1.10;;
71965;SDS011;59836;52.132;5.442;2022-07-29T00:37:12;2.27;;;1.00;;
71965;SDS011;59836;52.132;5.442;2022-07-29T00:39:38;3.80;;;1.10;;
71965;SDS011;59836;52.132;5.442;2022-07-29T00:42:05;1.85;;;0.98;;
71965;SDS011;59836;52.132;5.442;2022-07-29T00:44:35;2.03;;;0.88;;
71965;SDS011;59836;52.132;5.442;2022-07-29T00:47:04;3.97;;;1.15;;
71965;SDS011;59836;52.132;5.442;2022-07-29T00:49:32;2.40;;;0.97;;
71965;SDS011;59836;52.132;5.442;2022-07-29T00:52:03;1.90;;;0.90;;
71965;SDS011;59836;52.132;5.442;2022-07-29T00:54:30;2.33;;;1.05;;
71965;SDS011;59836;52.132;5.442;2022-07-29T00:56:58;2.83;;;0.98;;
71965;SDS011;59836;52.132;5.442;2022-07-29T00:59:28;2.55;;;1.00;;
71965;SDS011;59836;52.132;5.442;2022-07-29T01:02:00;2.97;;;0.70;;
71965;SDS011;59836;52.132;5.442;2022-07-29T01:04:27;3.28;;;1.02;;
71965;SDS011;59836;52.132;5.442;2022-07-29T01:06:55;1.60;;;0.90;;
71965;SDS011;59836;52.132;5.442;2022-07-29T01:09:22;1.55;;;0.88;;
71965;SDS011;59836;52.132;5.442;2022-07-29T01:12:10;1.60;;;1.15;;
71965;SDS011;59836;52.132;5.442;2022-07-29T01:14:37;4.13;;;1.17;;
71965;SDS011;59836;52.132;5.442;2022-07-29T01:20:42;1.58;;;1.23;;
71965;SDS011;59836;52.132;5.442;2022-07-29T01:25:46;1.50;;;1.35;;
71965;SDS011;59836;52.132;5.442;2022-07-29T01:31:10;1.75;;;0.90;;
71965;SDS011;59836;52.132;5.442;2022-07-29T01:34:03;1.58;;;1.13;;
71965;SDS011;59836;52.132;5.442;2022-07-29T01:36:47;5.57;;;1.08;;
71965;SDS011;59836;52.132;5.442;2022-07-29T01:39:19;3.05;;;0.90;;
71965;SDS011;59836;52.132;5.442;2022-07-29T01:44:31;1.70;;;0.90;;
71965;SDS011;59836;52.132;5.442;2022-07-29T01:47:01;2.08;;;1.02;;
71965;SDS011;59836;52.132;5.442;2022-07-29T01:49:33;4.57;;;0.90;;
71965;SDS011;59836;52.132;5.442;2022-07-29T01:52:07;2.75;;;1.30;;
71965;SDS011;59836;52.132;5.442;2022-07-29T01:54:38;3.70;;;1.30;;
71965;SDS011;59836;52.132;5.442;2022-07-29T01:57:13;1.95;;;0.90;;
71965;SDS011;59836;52.132;5.442;2022-07-29T01:59:43;3.03;;;1.25;;
71965;SDS011;59836;52.132;5.442;2022-07-29T02:02:13;1.38;;;1.00;;
71965;SDS011;59836;52.132;5.442;2022-07-29T02:04:42;3.15;;;1.42;;
71965;SDS011;59836;52.132;5.442;2022-07-29T02:07:15;2.73;;;0.87;;
71965;SDS011;59836;52.132;5.442;2022-07-29T02:09:46;2.10;;;1.10;;
71965;SDS011;59836;52.132;5.442;2022-07-29T02:12:16;1.60;;;1.10;;
71965;SDS011;59836;52.132;5.442;2022-07-29T02:14:49;4.40;;;1.38;;
71965;SDS011;59836;52.132;5.442;2022-07-29T02:17:25;1.75;;;1.13;;
71965;SDS011;59836;52.132;5.442;2022-07-29T02:19:55;2.87;;;1.10;;
71965;SDS011;59836;52.132;5.442;2022-07-29T02:22:25;2.20;;;0.95;;
71965;SDS011;59836;52.132;5.442;2022-07-29T02:24:55;2.40;;;1.17;;
71965;SDS011;59836;52.132;5.442;2022-07-29T02:27:23;2.10;;;1.27;;
71965;SDS011;59836;52.132;5.442;2022-07-29T02:29:51;3.80;;;1.48;;
71965;SDS011;59836;52.132;5.442;2022-07-29T02:32:18;1.77;;;0.97;;
71965;SDS011;59836;52.132;5.442;2022-07-29T02:34:47;6.97;;;1.50;;
71965;SDS011;59836;52.132;5.442;2022-07-29T02:37:15;3.47;;;1.30;;
71965;SDS011;59836;52.132;5.442;2022-07-29T02:39:44;3.20;;;1.15;;
71965;SDS011;59836;52.132;5.442;2022-07-29T02:42:14;4.43;;;1.80;;
71965;SDS011;59836;52.132;5.442;2022-07-29T02:44:42;2.63;;;1.00;;
71965;SDS011;59836;52.132;5.442;2022-07-29T02:49:41;3.13;;;0.90;;
71965;SDS011;59836;52.132;5.442;2022-07-29T02:52:29;2.83;;;0.95;;
71965;SDS011;59836;52.132;5.442;2022-07-29T02:55:01;2.00;;;1.00;;
71965;SDS011;59836;52.132;5.442;2022-07-29T02:57:41;1.83;;;1.13;;
71965;SDS011;59836;52.132;5.442;2022-07-29T03:00:21;2.97;;;1.23;;
71965;SDS011;59836;52.132;5.442;2022-07-29T03:02:50;3.97;;;1.48;;
71965;SDS011;59836;52.132;5.442;2022-07-29T03:05:20;2.35;;;1.30;;
71965;SDS011;59836;52.132;5.442;2022-07-29T03:07:56;1.75;;;1.05;;
71965;SDS011;59836;52.132;5.442;2022-07-29T03:10:26;1.73;;;1.17;;
71965;SDS011;59836;52.132;5.442;2022-07-29T03:12:54;2.70;;;1.27;;
71965;SDS011;59836;52.132;5.442;2022-07-29T03:15:22;2.80;;;1.27;;
71965;SDS011;59836;52.132;5.442;2022-07-29T03:17:50;3.83;;;1.40;;
71965;SDS011;59836;52.132;5.442;2022-07-29T03:20:17;2.35;;;1.40;;
71965;SDS011;59836;52.132;5.442;2022-07-29T03:22:44;3.43;;;1.00;;
71965;SDS011;59836;52.132;5.442;2022-07-29T03:25:14;4.20;;;1.60;;
71965;SDS011;59836;52.132;5.442;2022-07-29T03:27:43;2.50;;;1.70;;
71965;SDS011;59836;52.132;5.442;2022-07-29T03:30:10;3.17;;;1.38;;
71965;SDS011;59836;52.132;5.442;2022-07-29T03:32:43;2.20;;;1.45;;
71965;SDS011;59836;52.132;5.442;2022-07-29T03:35:10;3.57;;;1.40;;
71965;SDS011;59836;52.132;5.442;2022-07-29T03:37:36;3.10;;;1.00;;
71965;SDS011;59836;52.132;5.442;2022-07-29T03:40:05;4.03;;;1.77;;
71965;SDS011;59836;52.132;5.442;2022-07-29T03:42:35;2.22;;;1.30;;
71965;SDS011;59836;52.132;5.442;2022-07-29T03:45:07;1.70;;;1.50;;
71965;SDS011;59836;52.132;5.442;2022-07-29T03:47:37;3.30;;;1.27;;
71965;SDS011;59836;52.132;5.442;2022-07-29T03:50:17;3.13;;;1.33;;
71965;SDS011;59836;52.132;5.442;2022-07-29T03:52:45;3.80;;;1.67;;
71965;SDS011;59836;52.132;5.442;2022-07-29T03:55:13;3.38;;;1.60;;
71965;SDS011;59836;52.132;5.442;2022-07-29T03:57:40;3.47;;;1.70;;
71965;SDS011;59836;52.132;5.442;2022-07-29T04:00:08;4.03;;;1.40;;
71965;SDS011;59836;52.132;5.442;2022-07-29T04:02:35;1.88;;;1.15;;
71965;SDS011;59836;52.132;5.442;2022-07-29T04:05:02;2.33;;;1.75;;
71965;SDS011;59836;52.132;5.442;2022-07-29T04:07:29;3.78;;;1.33;;
71965;SDS011;59836;52.132;5.442;2022-07-29T04:09:55;6.18;;;1.80;;
71965;SDS011;59836;52.132;5.442;2022-07-29T04:12:22;2.30;;;1.03;;
71965;SDS011;59836;52.132;5.442;2022-07-29T04:14:48;2.42;;;1.00;;
71965;SDS011;59836;52.132;5.442;2022-07-29T04:17:16;2.78;;;1.40;;
71965;SDS011;59836;52.132;5.442;2022-07-29T04:19:42;3.00;;;1.08;;
71965;SDS011;59836;52.132;5.442;2022-07-29T04:22:09;2.42;;;1.30;;
71965;SDS011;59836;52.132;5.442;2022-07-29T04:24:35;2.00;;;1.10;;
71965;SDS011;59836;52.132;5.442;2022-07-29T04:27:02;3.35;;;1.70;;
71965;SDS011;59836;52.132;5.442;2022-07-29T04:29:28;3.08;;;1.60;;
71965;SDS011;59836;52.132;5.442;2022-07-29T04:31:54;4.43;;;1.95;;
71965;SDS011;59836;52.132;5.442;2022-07-29T04:34:21;2.25;;;1.38;;
71965;SDS011;59836;52.132;5.442;2022-07-29T04:36:53;4.07;;;1.40;;
71965;SDS011;59836;52.132;5.442;2022-07-29T04:39:19;1.90;;;1.35;;
71965;SDS011;59836;52.132;5.442;2022-07-29T04:41:48;2.60;;;1.70;;
71965;SDS011;59836;52.132;5.442;2022-07-29T04:44:17;5.22;;;1.42;;
71965;SDS011;59836;52.132;5.442;2022-07-29T04:46:44;3.25;;;1.55;;
71965;SDS011;59836;52.132;5.442;2022-07-29T04:49:11;3.37;;;1.40;;
71965;SDS011;59836;52.132;5.442;2022-07-29T04:51:38;4.03;;;1.38;;
71965;SDS011;59836;52.132;5.442;2022-07-29T04:54:05;3.78;;;1.70;;
71965;SDS011;59836;52.132;5.442;2022-07-29T04:56:32;3.03;;;1.63;;
71965;SDS011;59836;52.132;5.442;2022-07-29T04:58:58;2.95;;;1.60;;
71965;SDS011;59836;52.132;5.442;2022-07-29T05:01:24;4.80;;;1.40;;
71965;SDS011;59836;52.132;5.442;2022-07-29T05:03:51;2.85;;;1.20;;
71965;SDS011;59836;52.132;5.442;2022-07-29T05:06:25;2.92;;;1.33;;
71965;SDS011;59836;52.132;5.442;2022-07-29T05:08:51;2.88;;;1.30;;
71965;SDS011;59836;52.132;5.442;2022-07-29T05:11:17;3.05;;;1.90;;
71965;SDS011;59836;52.132;5.442;2022-07-29T05:13:47;3.97;;;1.77;;
71965;SDS011;59836;52.132;5.442;2022-07-29T05:16:14;4.72;;;1.55;;
71965;SDS011;59836;52.132;5.442;2022-07-29T05:18:40;2.35;;;1.35;;
71965;SDS011;59836;52.132;5.442;2022-07-29T05:21:08;3.47;;;1.52;;
71965;SDS011;59836;52.132;5.442;2022-07-29T05:23:34;4.57;;;1.48;;
71965;SDS011;59836;52.132;5.442;2022-07-29T05:26:01;2.20;;;1.30;;
71965;SDS011;59836;52.132;5.442;2022-07-29T05:28:27;3.80;;;1.45;;
71965;SDS011;59836;52.132;5.442;2022-07-29T05:30:54;3.08;;;1.67;;
71965;SDS011;59836;52.132;5.442;2022-07-29T05:33:20;2.05;;;1.65;;
71965;SDS011;59836;52.132;5.442;2022-07-29T05:36:02;3.22;;;1.65;;
71965;SDS011;59836;52.132;5.442;2022-07-29T05:38:31;2.00;;;1.40;;
71965;SDS011;59836;52.132;5.442;2022-07-29T05:40:58;4.15;;;1.60;;
71965;SDS011;59836;52.132;5.442;2022-07-29T05:43:28;4.13;;;1.58;;
71965;SDS011;59836;52.132;5.442;2022-07-29T05:45:55;7.38;;;1.70;;
71965;SDS011;59836;52.132;5.442;2022-07-29T05:48:22;1.70;;;1.50;;
71965;SDS011;59836;52.132;5.442;2022-07-29T05:50:48;1.97;;;1.57;;
71965;SDS011;59836;52.132;5.442;2022-07-29T05:53:15;3.05;;;1.73;;
71965;SDS011;59836;52.132;5.442;2022-07-29T05:55:45;5.35;;;2.05;;
71965;SDS011;59836;52.132;5.442;2022-07-29T05:58:12;3.50;;;1.70;;
71965;SDS011;59836;52.132;5.442;2022-07-29T06:00:38;4.13;;;2.13;;
71965;SDS011;59836;52.132;5.442;2022-07-29T06:03:05;5.20;;;1.70;;
71965;SDS011;59836;52.132;5.442;2022-07-29T06:05:32;5.85;;;1.70;;
71965;SDS011;59836;52.132;5.442;2022-07-29T06:07:58;4.63;;;1.83;;
71965;SDS011;59836;52.132;5.442;2022-07-29T06:10:25;3.78;;;1.77;;
71965;SDS011;59836;52.132;5.442;2022-07-29T06:12:52;3.80;;;1.77;;
71965;SDS011;59836;52.132;5.442;2022-07-29T06:15:19;4.47;;;1.73;;
71965;SDS011;59836;52.132;5.442;2022-07-29T06:17:45;3.38;;;1.73;;
71965;SDS011;59836;52.132;5.442;2022-07-29T06:20:27;3.15;;;1.70;;
71965;SDS011;59836;52.132;5.442;2022-07-29T06:22:56;2.70;;;1.70;;
71965;SDS011;59836;52.132;5.442;2022-07-29T06:25:23;3.40;;;1.83;;
71965;SDS011;59836;52.132;5.442;2022-07-29T06:27:49;3.53;;;1.60;;
71965;SDS011;59836;52.132;5.442;2022-07-29T06:30:16;5.72;;;1.73;;
71965;SDS011;59836;52.132;5.442;2022-07-29T06:32:42;4.53;;;2.15;;
71965;SDS011;59836;52.132;5.442;2022-07-29T06:35:09;5.55;;;2.05;;
71965;SDS011;59836;52.132;5.442;2022-07-29T06:37:55;3.72;;;1.75;;
71965;SDS011;59836;52.132;5.442;2022-07-29T06:40:24;4.37;;;1.90;;
71965;SDS011;59836;52.132;5.442;2022-07-29T06:43:09;4.13;;;2.00;;
71965;SDS011;59836;52.132;5.442;2022-07-29T06:45:36;3.72;;;2.05;;
71965;SDS011;59836;52.132;5.442;2022-07-29T06:48:04;3.90;;;1.75;;
71965;SDS011;59836;52.132;5.442;2022-07-29T06:50:31;4.90;;;1.83;;
71965;SDS011;59836;52.132;5.442;2022-07-29T06:52:57;4.60;;;2.07;;
71965;SDS011;59836;52.132;5.442;2022-07-29T06:55:24;2.83;;;1.60;;
71965;SDS011;59836;52.132;5.442;2022-07-29T06:57:50;4.80;;;1.88;;
71965;SDS011;59836;52.132;5.442;2022-07-29T07:00:17;3.78;;;1.98;;
71965;SDS011;59836;52.132;5.442;2022-07-29T07:02:43;3.03;;;2.00;;
71965;SDS011;59836;52.132;5.442;2022-07-29T07:05:12;4.50;;;1.73;;
71965;SDS011;59836;52.132;5.442;2022-07-29T07:07:38;4.90;;;1.60;;
71965;SDS011;59836;52.132;5.442;2022-07-29T07:10:05;2.78;;;2.00;;
71965;SDS011;59836;52.132;5.442;2022-07-29T07:12:32;4.18;;;1.83;;
71965;SDS011;59836;52.132;5.442;2022-07-29T07:14:58;7.25;;;2.25;;
71965;SDS011;59836;52.132;5.442;2022-07-29T07:17:24;3.80;;;1.90;;
71965;SDS011;59836;52.132;5.442;2022-07-29T07:19:51;2.28;;;1.75;;
71965;SDS011;59836;52.132;5.442;2022-07-29T07:22:17;3.35;;;2.00;;
71965;SDS011;59836;52.132;5.442;2022-07-29T07:24:44;3.20;;;2.17;;
71965;SDS011;59836;52.132;5.442;2022-07-29T07:27:10;3.80;;;2.53;;
71965;SDS011;59836;52.132;5.442;2022-07-29T07:29:37;2.47;;;1.97;;
71965;SDS011;59836;52.132;5.442;2022-07-29T07:32:09;3.67;;;1.70;;
71965;SDS011;59836;52.132;5.442;2022-07-29T07:34:35;3.70;;;2.40;;
71965;SDS011;59836;52.132;5.442;2022-07-29T07:37:04;10.18;;;2.05;;
71965;SDS011;59836;52.132;5.442;2022-07-29T07:39:30;5.32;;;2.03;;
71965;SDS011;59836;52.132;5.442;2022-07-29T07:41:57;3.43;;;1.87;;
71965;SDS011;59836;52.132;5.442;2022-07-29T07:44:23;5.47;;;2.20;;
71965;SDS011;59836;52.132;5.442;2022-07-29T07:46:50;4.47;;;2.28;;
71965;SDS011;59836;52.132;5.442;2022-07-29T07:49:16;2.88;;;1.73;;
71965;SDS011;59836;52.132;5.442;2022-07-29T07:51:42;3.65;;;2.00;;
71965;SDS011;59836;52.132;5.442;2022-07-29T07:54:15;2.80;;;2.20;;
71965;SDS011;59836;52.132;5.442;2022-07-29T07:56:43;4.22;;;1.88;;
71965;SDS011;59836;52.132;5.442;2022-07-29T07:59:09;3.08;;;2.10;;
71965;SDS011;59836;52.132;5.442;2022-07-29T08:01:36;4.57;;;2.05;;
71965;SDS011;59836;52.132;5.442;2022-07-29T08:04:20;5.97;;;1.90;;
71965;SDS011;59836;52.132;5.442;2022-07-29T08:06:53;2.87;;;1.90;;
71965;SDS011;59836;52.132;5.442;2022-07-29T08:09:23;2.47;;;2.10;;
71965;SDS011;59836;52.132;5.442;2022-07-29T08:11:56;4.13;;;2.17;;
71965;SDS011;59836;52.132;5.442;2022-07-29T08:14:24;2.60;;;1.92;;
71965;SDS011;59836;52.132;5.442;2022-07-29T08:16:50;2.58;;;1.77;;
71965;SDS011;59836;52.132;5.442;2022-07-29T08:19:17;5.97;;;1.97;;
71965;SDS011;59836;52.132;5.442;2022-07-29T08:21:44;7.00;;;2.15;;
71965;SDS011;59836;52.132;5.442;2022-07-29T08:24:10;3.33;;;2.13;;
71965;SDS011;59836;52.132;5.442;2022-07-29T08:26:55;3.97;;;2.22;;
71965;SDS011;59836;52.132;5.442;2022-07-29T08:29:22;3.70;;;1.92;;
71965;SDS011;59836;52.132;5.442;2022-07-29T08:31:48;2.80;;;1.90;;
71965;SDS011;59836;52.132;5.442;2022-07-29T08:34:15;5.63;;;1.92;;
71965;SDS011;59836;52.132;5.442;2022-07-29T08:36:41;4.68;;;1.90;;
71965;SDS011;59836;52.132;5.442;2022-07-29T08:39:08;4.53;;;2.00;;
71965;SDS011;59836;52.132;5.442;2022-07-29T08:41:34;4.93;;;2.35;;
71965;SDS011;59836;52.132;5.442;2022-07-29T08:44:01;3.20;;;1.83;;
71965;SDS011;59836;52.132;5.442;2022-07-29T08:46:28;7.00;;;2.10;;
71965;SDS011;59836;52.132;5.442;2022-07-29T08:48:54;5.78;;;2.50;;
71965;SDS011;59836;52.132;5.442;2022-07-29T08:51:21;3.88;;;1.70;;
71965;SDS011;59836;52.132;5.442;2022-07-29T08:53:49;4.13;;;1.98;;
71965;SDS011;59836;52.132;5.442;2022-07-29T08:56:17;4.00;;;2.00;;
71965;SDS011;59836;52.132;5.442;2022-07-29T08:58:45;3.70;;;2.05;;
71965;SDS011;59836;52.132;5.442;2022-07-29T09:01:21;3.50;;;2.00;;
71965;SDS011;59836;52.132;5.442;2022-07-29T09:04:04;2.95;;;2.10;;
71965;SDS011;59836;52.132;5.442;2022-07-29T09:06:33;4.07;;;1.90;;
71965;SDS011;59836;52.132;5.442;2022-07-29T09:09:02;4.27;;;2.00;;
71965;SDS011;59836;52.132;5.442;2022-07-29T09:11:31;3.25;;;2.10;;
71965;SDS011;59836;52.132;5.442;2022-07-29T09:13:58;3.42;;;2.38;;
71965;SDS011;59836;52.132;5.442;2022-07-29T09:16:24;4.20;;;2.30;;
71965;SDS011;59836;52.132;5.442;2022-07-29T09:19:24;5.20;;;2.45;;
71965;SDS011;59836;52.132;5.442;2022-07-29T09:21:54;4.07;;;1.80;;
71965;SDS011;59836;52.132;5.442;2022-07-29T09:27:01;26.65;;;2.97;;
71965;SDS011;59836;52.132;5.442;2022-07-29T09:29:27;5.32;;;2.22;;
71965;SDS011;59836;52.132;5.442;2022-07-29T09:32:00;3.17;;;1.73;;
71965;SDS011;59836;52.132;5.442;2022-07-29T09:34:32;4.83;;;2.00;;
71965;SDS011;59836;52.132;5.442;2022-07-29T09:36:58;4.78;;;2.13;;
71965;SDS011;59836;52.132;5.442;2022-07-29T09:39:38;3.60;;;1.83;;
71965;SDS011;59836;52.132;5.442;2022-07-29T09:42:12;2.80;;;1.77;;
71965;SDS011;59836;52.132;5.442;2022-07-29T09:44:42;3.45;;;1.70;;
71965;SDS011;59836;52.132;5.442;2022-07-29T09:47:10;8.10;;;2.07;;
71965;SDS011;59836;52.132;5.442;2022-07-29T09:49:50;3.55;;;1.40;;
71965;SDS011;59836;52.132;5.442;2022-07-29T09:52:21;3.90;;;1.55;;
71965;SDS011;59836;52.132;5.442;2022-07-29T09:54:47;3.92;;;1.50;;
71965;SDS011;59836;52.132;5.442;2022-07-29T09:57:24;2.97;;;1.48;;
71965;SDS011;59836;52.132;5.442;2022-07-29T10:00:06;3.17;;;1.13;;
71965;SDS011;59836;52.132;5.442;2022-07-29T10:02:38;4.35;;;1.42;;
71965;SDS011;59836;52.132;5.442;2022-07-29T10:07:51;4.07;;;1.60;;
71965;SDS011;59836;52.132;5.442;2022-07-29T10:10:28;4.97;;;1.75;;
71965;SDS011;59836;52.132;5.442;2022-07-29T10:13:03;6.67;;;1.60;;
71965;SDS011;59836;52.132;5.442;2022-07-29T10:15:38;3.67;;;1.98;;
71965;SDS011;59836;52.132;5.442;2022-07-29T10:18:11;3.67;;;1.75;;
71965;SDS011;59836;52.132;5.442;2022-07-29T10:20:38;6.22;;;1.80;;
71965;SDS011;59836;52.132;5.442;2022-07-29T10:23:05;3.10;;;1.70;;
71965;SDS011;59836;52.132;5.442;2022-07-29T10:25:32;4.80;;;2.47;;
71965;SDS011;59836;52.132;5.442;2022-07-29T10:27:58;9.02;;;1.50;;
71965;SDS011;59836;52.132;5.442;2022-07-29T10:30:25;6.70;;;1.92;;
71965;SDS011;59836;52.132;5.442;2022-07-29T10:43:55;3.42;;;1.60;;
71965;SDS011;59836;52.132;5.442;2022-07-29T10:46:26;9.80;;;2.35;;
71965;SDS011;59836;52.132;5.442;2022-07-29T10:51:59;2.77;;;1.70;;
71965;SDS011;59836;52.132;5.442;2022-07-29T10:57:10;4.45;;;1.95;;
71965;SDS011;59836;52.132;5.442;2022-07-29T10:59:41;4.55;;;2.00;;
71965;SDS011;59836;52.132;5.442;2022-07-29T11:07:38;4.57;;;1.60;;
71965;SDS011;59836;52.132;5.442;2022-07-29T11:15:08;3.85;;;2.45;;
71965;SDS011;59836;52.132;5.442;2022-07-29T11:23:31;3.50;;;1.55;;
71965;SDS011;59836;52.132;5.442;2022-07-29T11:39:47;3.25;;;1.67;;
71965;SDS011;59836;52.132;5.442;2022-07-29T11:48:06;5.18;;;1.90;;
71965;SDS011;59836;52.132;5.442;2022-07-29T11:50:53;3.20;;;1.75;;
71965;SDS011;59836;52.132;5.442;2022-07-29T11:53:19;2.90;;;1.70;;
71965;SDS011;59836;52.132;5.442;2022-07-29T11:55:46;3.50;;;1.52;;
71965;SDS011;59836;52.132;5.442;2022-07-29T11:58:23;4.60;;;1.70;;
71965;SDS011;59836;52.132;5.442;2022-07-29T12:00:51;3.10;;;1.85;;
71965;SDS011;59836;52.132;5.442;2022-07-29T12:03:27;3.50;;;2.00;;
71965;SDS011;59836;52.132;5.442;2022-07-29T12:06:01;4.15;;;2.38;;
71965;SDS011;59836;52.132;5.442;2022-07-29T12:08:40;4.43;;;1.77;;
71965;SDS011;59836;52.132;5.442;2022-07-29T12:11:15;2.97;;;1.60;;
71965;SDS011;59836;52.132;5.442;2022-07-29T12:13:47;2.53;;;1.75;;
71965;SDS011;59836;52.132;5.442;2022-07-29T12:16:15;5.43;;;1.60;;
71965;SDS011;59836;52.132;5.442;2022-07-29T12:19:00;4.38;;;1.73;;
71965;SDS011;59836;52.132;5.442;2022-07-29T12:21:29;3.92;;;2.20;;
71965;SDS011;59836;52.132;5.442;2022-07-29T12:24:22;7.93;;;2.17;;
71965;SDS011;59836;52.132;5.442;2022-07-29T12:26:56;6.03;;;2.03;;
71965;SDS011;59836;52.132;5.442;2022-07-29T12:29:24;6.55;;;2.28;;
71965;SDS011;59836;52.132;5.442;2022-07-29T12:32:00;5.45;;;2.22;;
71965;SDS011;59836;52.132;5.442;2022-07-29T12:34:27;3.78;;;1.95;;
71965;SDS011;59836;52.132;5.442;2022-07-29T12:36:55;4.70;;;1.80;;
71965;SDS011;59836;52.132;5.442;2022-07-29T12:39:21;3.65;;;1.90;;
71965;SDS011;59836;52.132;5.442;2022-07-29T12:41:48;8.35;;;2.45;;
71965;SDS011;59836;52.132;5.442;2022-07-29T12:44:14;3.25;;;1.70;;
71965;SDS011;59836;52.132;5.442;2022-07-29T12:46:41;8.25;;;2.25;;
71965;SDS011;59836;52.132;5.442;2022-07-29T12:49:07;4.67;;;1.73;;
71965;SDS011;59836;52.132;5.442;2022-07-29T12:51:37;4.03;;;1.90;;
71965;SDS011;59836;52.132;5.442;2022-07-29T12:54:12;5.18;;;2.60;;
71965;SDS011;59836;52.132;5.442;2022-07-29T12:56:40;5.70;;;2.17;;
71965;SDS011;59836;52.132;5.442;2022-07-29T12:59:10;2.78;;;2.45;;
71965;SDS011;59836;52.132;5.442;2022-07-29T13:01:45;5.23;;;1.60;;
71965;SDS011;59836;52.132;5.442;2022-07-29T13:04:30;3.70;;;1.85;;
71965;SDS011;59836;52.132;5.442;2022-07-29T13:09:40;5.93;;;2.35;;
71965;SDS011;59836;52.132;5.442;2022-07-29T13:12:08;4.82;;;1.92;;
71965;SDS011;59836;52.132;5.442;2022-07-29T13:17:07;7.57;;;1.55;;
71965;SDS011;59836;52.132;5.442;2022-07-29T13:22:10;7.82;;;2.00;;
71965;SDS011;59836;52.132;5.442;2022-07-29T13:24:51;3.30;;;2.30;;
71965;SDS011;59836;52.132;5.442;2022-07-29T13:27:20;3.43;;;2.03;;
71965;SDS011;59836;52.132;5.442;2022-07-29T13:29:54;4.15;;;2.28;;
71965;SDS011;59836;52.132;5.442;2022-07-29T13:32:23;3.03;;;2.30;;
71965;SDS011;59836;52.132;5.442;2022-07-29T13:34:58;5.00;;;1.88;;
71965;SDS011;59836;52.132;5.442;2022-07-29T13:37:30;7.45;;;2.15;;
71965;SDS011;59836;52.132;5.442;2022-07-29T13:40:00;4.03;;;1.90;;
71965;SDS011;59836;52.132;5.442;2022-07-29T13:42:29;5.30;;;2.05;;
71965;SDS011;59836;52.132;5.442;2022-07-29T13:44:56;5.00;;;2.33;;
71965;SDS011;59836;52.132;5.442;2022-07-29T13:47:22;3.90;;;2.00;;
71965;SDS011;59836;52.132;5.442;2022-07-29T13:50:03;4.00;;;2.15;;
71965;SDS011;59836;52.132;5.442;2022-07-29T13:52:32;5.40;;;2.47;;
71965;SDS011;59836;52.132;5.442;2022-07-29T13:54:59;5.15;;;2.17;;
71965;SDS011;59836;52.132;5.442;2022-07-29T13:57:26;3.05;;;2.00;;
71965;SDS011;59836;52.132;5.442;2022-07-29T13:59:53;3.08;;;1.80;;
71965;SDS011;59836;52.132;5.442;2022-07-29T14:02:20;4.65;;;2.63;;
71965;SDS011;59836;52.132;5.442;2022-07-29T14:04:51;6.13;;;2.93;;
71965;SDS011;59836;52.132;5.442;2022-07-29T14:07:18;4.00;;;2.28;;
71965;SDS011;59836;52.132;5.442;2022-07-29T14:09:44;3.95;;;2.42;;
71965;SDS011;59836;52.132;5.442;2022-07-29T14:12:11;5.95;;;3.25;;
71965;SDS011;59836;52.132;5.442;2022-07-29T14:14:37;4.00;;;2.40;;
71965;SDS011;59836;52.132;5.442;2022-07-29T14:17:04;5.00;;;2.27;;
71965;SDS011;59836;52.132;5.442;2022-07-29T14:19:33;5.47;;;2.03;;
71965;SDS011;59836;52.132;5.442;2022-07-29T14:22:02;4.40;;;1.80;;
71965;SDS011;59836;52.132;5.442;2022-07-29T14:24:31;3.63;;;1.98;;
71965;SDS011;59836;52.132;5.442;2022-07-29T14:27:02;5.72;;;2.15;;
71965;SDS011;59836;52.132;5.442;2022-07-29T14:29:28;4.23;;;2.20;;
71965;SDS011;59836;52.132;5.442;2022-07-29T14:32:04;4.78;;;2.30;;
71965;SDS011;59836;52.132;5.442;2022-07-29T14:34:32;5.03;;;3.42;;
71965;SDS011;59836;52.132;5.442;2022-07-29T14:36:58;9.20;;;2.55;;
71965;SDS011;59836;52.132;5.442;2022-07-29T14:39:25;3.72;;;2.20;;
71965;SDS011;59836;52.132;5.442;2022-07-29T14:41:57;8.07;;;2.87;;
71965;SDS011;59836;52.132;5.442;2022-07-29T14:44:24;6.03;;;2.55;;
71965;SDS011;59836;52.132;5.442;2022-07-29T14:46:57;4.45;;;2.33;;
71965;SDS011;59836;52.132;5.442;2022-07-29T14:49:25;6.15;;;2.78;;
71965;SDS011;59836;52.132;5.442;2022-07-29T14:51:54;6.00;;;2.90;;
71965;SDS011;59836;52.132;5.442;2022-07-29T14:54:21;8.23;;;3.77;;
71965;SDS011;59836;52.132;5.442;2022-07-29T14:56:48;4.60;;;2.13;;
71965;SDS011;59836;52.132;5.442;2022-07-29T14:59:16;5.57;;;3.42;;
71965;SDS011;59836;52.132;5.442;2022-07-29T15:01:43;5.63;;;3.05;;
71965;SDS011;59836;52.132;5.442;2022-07-29T15:04:09;6.55;;;3.08;;
71965;SDS011;59836;52.132;5.442;2022-07-29T15:06:36;6.30;;;3.57;;
71965;SDS011;59836;52.132;5.442;2022-07-29T15:09:02;5.95;;;2.92;;
71965;SDS011;59836;52.132;5.442;2022-07-29T15:11:29;8.85;;;3.22;;
71965;SDS011;59836;52.132;5.442;2022-07-29T15:14:02;6.68;;;3.20;;
71965;SDS011;59836;52.132;5.442;2022-07-29T15:16:28;7.72;;;3.15;;
71965;SDS011;59836;52.132;5.442;2022-07-29T15:18:55;5.73;;;3.13;;
71965;SDS011;59836;52.132;5.442;2022-07-29T15:21:26;4.90;;;2.47;;
71965;SDS011;59836;52.132;5.442;2022-07-29T15:23:53;5.20;;;2.78;;
71965;SDS011;59836;52.132;5.442;2022-07-29T15:26:19;3.38;;;2.10;;
71965;SDS011;59836;52.132;5.442;2022-07-29T15:28:46;4.90;;;2.60;;
71965;SDS011;59836;52.132;5.442;2022-07-29T15:31:12;11.17;;;3.30;;
71965;SDS011;59836;52.132;5.442;2022-07-29T15:33:39;4.88;;;2.05;;
71965;SDS011;59836;52.132;5.442;2022-07-29T15:36:05;5.43;;;2.33;;
71965;SDS011;59836;52.132;5.442;2022-07-29T15:38:32;4.90;;;1.85;;
71965;SDS011;59836;52.132;5.442;2022-07-29T15:40:59;4.55;;;2.08;;
71965;SDS011;59836;52.132;5.442;2022-07-29T15:43:25;4.10;;;1.77;;
71965;SDS011;59836;52.132;5.442;2022-07-29T15:45:52;4.03;;;1.60;;
71965;SDS011;59836;52.132;5.442;2022-07-29T15:48:38;4.28;;;1.90;;
71965;SDS011;59836;52.132;5.442;2022-07-29T15:51:05;4.57;;;1.83;;
71965;SDS011;59836;52.132;5.442;2022-07-29T15:53:31;2.40;;;1.55;;
71965;SDS011;59836;52.132;5.442;2022-07-29T15:56:00;4.67;;;1.57;;
71965;SDS011;59836;52.132;5.442;2022-07-29T15:58:27;3.53;;;1.80;;
71965;SDS011;59836;52.132;5.442;2022-07-29T16:00:53;3.30;;;1.65;;
71965;SDS011;59836;52.132;5.442;2022-07-29T16:03:20;6.35;;;1.40;;
71965;SDS011;59836;52.132;5.442;2022-07-29T16:05:47;3.78;;;1.60;;
71965;SDS011;59836;52.132;5.442;2022-07-29T16:08:14;7.27;;;2.10;;
71965;SDS011;59836;52.132;5.442;2022-07-29T16:10:40;7.28;;;2.83;;
71965;SDS011;59836;52.132;5.442;2022-07-29T16:13:07;4.30;;;1.83;;
71965;SDS011;59836;52.132;5.442;2022-07-29T16:15:33;5.00;;;1.63;;
71965;SDS011;59836;52.132;5.442;2022-07-29T16:18:00;4.25;;;2.30;;
71965;SDS011;59836;52.132;5.442;2022-07-29T16:20:28;3.20;;;1.10;;
71965;SDS011;59836;52.132;5.442;2022-07-29T16:22:54;4.57;;;1.50;;